sensor_id;sensor_type;location;lat;lon;timestamp;pressure;altitude;pressure_sealevel;temperature;humidity
81937;BME280;71432;56.558;9.036;2023-08-08T00:00:37;99637.44;;;23.52;47.62
81937;BME280;71432;56.558;9.036;2023-08-08T00:03:03;99637.25;;;23.53;47.32
81937;BME280;71432;56.558;9.036;2023-08-08T00:05:28;99626.88;;;23.52;47.55
81937;BME280;71432;56.558;9.036;2023-08-08T00:07:53;99640.28;;;23.50;47.41
81937;BME280;71432;56.558;9.036;2023-08-08T00:10:19;99635.97;;;23.49;47.34
81937;BME280;71432;56.558;9.036;2023-08-08T00:12:44;99632.34;;;23.50;47.60
81937;BME280;71432;56.558;9.036;2023-08-08T00:15:09;99627.25;;;23.48;47.67
81937;BME280;71432;56.558;9.036;2023-08-08T00:17:35;99628.28;;;23.47;46.89
81937;BME280;71432;56.558;9.036;2023-08-08T00:20:00;99631.75;;;23.48;47.45
81937;BME280;71432;56.558;9.036;2023-08-08T00:22:26;99633.34;;;23.49;47.62
81937;BME280;71432;56.558;9.036;2023-08-08T00:24:51;99624.81;;;23.47;47.36
81937;BME280;71432;56.558;9.036;2023-08-08T00:27:16;99630.09;;;23.47;47.62
81937;BME280;71432;56.558;9.036;2023-08-08T00:29:42;99624.00;;;23.46;47.64
81937;BME280;71432;56.558;9.036;2023-08-08T00:32:07;99629.88;;;23.48;47.46
81937;BME280;71432;56.558;9.036;2023-08-08T00:34:32;99627.25;;;23.48;47.32
81937;BME280;71432;56.558;9.036;2023-08-08T00:36:58;99618.88;;;23.45;47.73
81937;BME280;71432;56.558;9.036;2023-08-08T00:39:23;99637.81;;;23.48;47.61
81937;BME280;71432;56.558;9.036;2023-08-08T00:41:48;99624.59;;;23.48;47.42
81937;BME280;71432;56.558;9.036;2023-08-08T00:44:14;99610.16;;;23.44;47.66
81937;BME280;71432;56.558;9.036;2023-08-08T00:46:39;99608.13;;;23.46;47.70
81937;BME280;71432;56.558;9.036;2023-08-08T00:49:04;99600.41;;;23.45;47.58
81937;BME280;71432;56.558;9.036;2023-08-08T00:51:30;99611.59;;;23.47;47.33
81937;BME280;71432;56.558;9.036;2023-08-08T00:53:56;99602.84;;;23.46;47.72
81937;BME280;71432;56.558;9.036;2023-08-08T00:56:21;99618.72;;;23.46;47.74
81937;BME280;71432;56.558;9.036;2023-08-08T00:58:47;99617.25;;;23.44;47.81
81937;BME280;71432;56.558;9.036;2023-08-08T01:01:15;99600.41;;;23.45;47.63
81937;BME280;71432;56.558;9.036;2023-08-08T01:03:41;99600.56;;;23.43;47.80
81937;BME280;71432;56.558;9.036;2023-08-08T01:06:37;99608.25;;;23.38;47.83
81937;BME280;71432;56.558;9.036;2023-08-08T01:09:10;99604.41;;;23.41;47.54
81937;BME280;71432;56.558;9.036;2023-08-08T01:11:39;99612.50;;;23.39;47.56
81937;BME280;71432;56.558;9.036;2023-08-08T01:14:05;99629.56;;;23.37;47.73
81937;BME280;71432;56.558;9.036;2023-08-08T01:16:32;99628.81;;;23.43;47.83
81937;BME280;71432;56.558;9.036;2023-08-08T01:18:58;99636.91;;;23.41;47.76
81937;BME280;71432;56.558;9.036;2023-08-08T01:21:25;99620.63;;;23.38;47.76
81937;BME280;71432;56.558;9.036;2023-08-08T01:23:58;99621.63;;;23.37;47.90
81937;BME280;71432;56.558;9.036;2023-08-08T01:26:26;99614.78;;;23.42;47.67
81937;BME280;71432;56.558;9.036;2023-08-08T01:28:54;99608.25;;;23.38;47.78
81937;BME280;71432;56.558;9.036;2023-08-08T01:31:20;99605.41;;;23.40;47.70
81937;BME280;71432;56.558;9.036;2023-08-08T01:33:46;99599.88;;;23.35;47.77
81937;BME280;71432;56.558;9.036;2023-08-08T01:36:27;99602.97;;;23.38;47.91
81937;BME280;71432;56.558;9.036;2023-08-08T01:38:54;99596.88;;;23.38;47.99
81937;BME280;71432;56.558;9.036;2023-08-08T01:41:25;99580.19;;;23.37;47.63
81937;BME280;71432;56.558;9.036;2023-08-08T01:43:51;99586.47;;;23.36;47.66
81937;BME280;71432;56.558;9.036;2023-08-08T01:46:17;99580.19;;;23.37;47.65
81937;BME280;71432;56.558;9.036;2023-08-08T01:48:45;99588.50;;;23.34;47.84
81937;BME280;71432;56.558;9.036;2023-08-08T01:51:12;99590.34;;;23.34;47.84
81937;BME280;71432;56.558;9.036;2023-08-08T01:53:37;99580.81;;;23.39;47.72
81937;BME280;71432;56.558;9.036;2023-08-08T01:56:02;99602.72;;;23.33;47.68
81937;BME280;71432;56.558;9.036;2023-08-08T01:58:28;99584.03;;;23.35;47.72
81937;BME280;71432;56.558;9.036;2023-08-08T02:00:53;99594.41;;;23.36;47.95
81937;BME280;71432;56.558;9.036;2023-08-08T02:03:18;99584.22;;;23.33;47.74
81937;BME280;71432;56.558;9.036;2023-08-08T02:05:44;99574.28;;;23.35;47.97
81937;BME280;71432;56.558;9.036;2023-08-08T02:08:09;99566.56;;;23.34;47.82
81937;BME280;71432;56.558;9.036;2023-08-08T02:10:35;99580.59;;;23.34;48.01
81937;BME280;71432;56.558;9.036;2023-08-08T02:13:00;99577.94;;;23.34;47.68
81937;BME280;71432;56.558;9.036;2023-08-08T02:15:25;99562.91;;;23.35;47.90
81937;BME280;71432;56.558;9.036;2023-08-08T02:17:51;99581.59;;;23.33;47.66
81937;BME280;71432;56.558;9.036;2023-08-08T02:20:16;99575.31;;;23.34;47.96
81937;BME280;71432;56.558;9.036;2023-08-08T02:22:43;99581.59;;;23.33;47.85
81937;BME280;71432;56.558;9.036;2023-08-08T02:25:08;99582.41;;;23.34;47.94
81937;BME280;71432;56.558;9.036;2023-08-08T02:27:33;99571.03;;;23.33;47.90
81937;BME280;71432;56.558;9.036;2023-08-08T02:29:59;99580.13;;;23.31;47.67
81937;BME280;71432;56.558;9.036;2023-08-08T02:32:24;99564.94;;;23.33;47.72
81937;BME280;71432;56.558;9.036;2023-08-08T02:34:49;99564.28;;;23.31;47.84
81937;BME280;71432;56.558;9.036;2023-08-08T02:37:15;99551.91;;;23.31;48.14
81937;BME280;71432;56.558;9.036;2023-08-08T02:39:42;99568.78;;;23.30;47.71
81937;BME280;71432;56.558;9.036;2023-08-08T02:42:07;99579.53;;;23.29;47.79
81937;BME280;71432;56.558;9.036;2023-08-08T02:44:33;99574.66;;;23.32;47.61
81937;BME280;71432;56.558;9.036;2023-08-08T02:46:58;99565.75;;;23.33;47.71
81937;BME280;71432;56.558;9.036;2023-08-08T02:49:23;99579.53;;;23.29;47.82
81937;BME280;71432;56.558;9.036;2023-08-08T02:51:49;99570.59;;;23.30;47.45
81937;BME280;71432;56.558;9.036;2023-08-08T02:54:14;99569.78;;;23.29;47.94
81937;BME280;71432;56.558;9.036;2023-08-08T02:56:39;99576.50;;;23.32;48.14
81937;BME280;71432;56.558;9.036;2023-08-08T02:59:05;99566.31;;;23.29;47.87
81937;BME280;71432;56.558;9.036;2023-08-08T03:01:30;99562.47;;;23.31;47.68
81937;BME280;71432;56.558;9.036;2023-08-08T03:03:55;99559.22;;;23.29;47.78
81937;BME280;71432;56.558;9.036;2023-08-08T03:06:20;99537.28;;;23.29;48.09
81937;BME280;71432;56.558;9.036;2023-08-08T03:08:46;99544.75;;;23.25;47.75
81937;BME280;71432;56.558;9.036;2023-08-08T03:11:11;99565.50;;;23.28;48.08
81937;BME280;71432;56.558;9.036;2023-08-08T03:13:36;99549.84;;;23.27;47.71
81937;BME280;71432;56.558;9.036;2023-08-08T03:16:03;99564.28;;;23.31;47.98
81937;BME280;71432;56.558;9.036;2023-08-08T03:18:28;99555.94;;;23.27;47.76
81937;BME280;71432;56.558;9.036;2023-08-08T03:20:53;99548.41;;;23.24;47.92
81937;BME280;71432;56.558;9.036;2023-08-08T03:23:19;99560.41;;;23.27;48.12
81937;BME280;71432;56.558;9.036;2023-08-08T03:25:44;99530.75;;;23.25;47.67
81937;BME280;71432;56.558;9.036;2023-08-08T03:28:09;99547.19;;;23.27;48.10
81937;BME280;71432;56.558;9.036;2023-08-08T03:30:38;99537.44;;;23.27;47.88
81937;BME280;71432;56.558;9.036;2023-08-08T03:33:04;99535.19;;;23.24;48.09
81937;BME280;71432;56.558;9.036;2023-08-08T03:35:29;99537.44;;;23.27;47.84
81937;BME280;71432;56.558;9.036;2023-08-08T03:37:55;99546.94;;;23.22;47.74
81937;BME280;71432;56.558;9.036;2023-08-08T03:40:20;99535.19;;;23.24;48.12
81937;BME280;71432;56.558;9.036;2023-08-08T03:42:46;99552.69;;;23.25;47.78
81937;BME280;71432;56.558;9.036;2023-08-08T03:45:11;99549.59;;;23.22;48.09
81937;BME280;71432;56.558;9.036;2023-08-08T03:47:36;99551.03;;;23.24;47.90
81937;BME280;71432;56.558;9.036;2023-08-08T03:50:02;99534.78;;;23.21;47.89
81937;BME280;71432;56.558;9.036;2023-08-08T03:52:28;99520.19;;;23.25;48.40
81937;BME280;71432;56.558;9.036;2023-08-08T03:54:53;99548.22;;;23.26;48.02
81937;BME280;71432;56.558;9.036;2023-08-08T03:57:18;99545.13;;;23.22;48.17
81937;BME280;71432;56.558;9.036;2023-08-08T03:59:44;99524.38;;;23.19;47.98
81937;BME280;71432;56.558;9.036;2023-08-08T04:02:09;99534.38;;;23.24;48.31
81937;BME280;71432;56.558;9.036;2023-08-08T04:04:34;99529.09;;;23.24;47.95
81937;BME280;71432;56.558;9.036;2023-08-08T04:07:00;99557.31;;;23.23;48.04
81937;BME280;71432;56.558;9.036;2023-08-08T04:09:25;99539.84;;;23.22;48.15
81937;BME280;71432;56.558;9.036;2023-08-08T04:11:50;99541.66;;;23.22;47.85
81937;BME280;71432;56.558;9.036;2023-08-08T04:14:16;99532.13;;;23.21;48.10
81937;BME280;71432;56.558;9.036;2023-08-08T04:16:41;99553.88;;;23.23;48.12
81937;BME280;71432;56.558;9.036;2023-08-08T04:19:06;99560.16;;;23.22;47.86
81937;BME280;71432;56.558;9.036;2023-08-08T04:21:31;99567.06;;;23.23;48.28
81937;BME280;71432;56.558;9.036;2023-08-08T04:23:58;99544.88;;;23.17;47.88
81937;BME280;71432;56.558;9.036;2023-08-08T04:26:24;99549.16;;;23.18;48.12
81937;BME280;71432;56.558;9.036;2023-08-08T04:28:49;99548.78;;;23.21;47.98
81937;BME280;71432;56.558;9.036;2023-08-08T04:31:15;99552.22;;;23.22;47.82
81937;BME280;71432;56.558;9.036;2023-08-08T04:33:40;99538.22;;;23.21;48.03
81937;BME280;71432;56.558;9.036;2023-08-08T04:36:05;99546.16;;;23.21;48.14
81937;BME280;71432;56.558;9.036;2023-08-08T04:38:31;99549.97;;;23.19;48.04
81937;BME280;71432;56.558;9.036;2023-08-08T04:40:56;99522.56;;;23.20;47.73
81937;BME280;71432;56.558;9.036;2023-08-08T04:43:21;99512.00;;;23.20;48.03
81937;BME280;71432;56.558;9.036;2023-08-08T04:45:46;99527.22;;;23.18;48.09
81937;BME280;71432;56.558;9.036;2023-08-08T04:48:12;99537.78;;;23.18;47.82
81937;BME280;71432;56.558;9.036;2023-08-08T04:50:37;99522.97;;;23.17;47.96
81937;BME280;71432;56.558;9.036;2023-08-08T04:53:03;99531.66;;;23.17;47.81
81937;BME280;71432;56.558;9.036;2023-08-08T04:55:28;99531.66;;;23.17;47.98
81937;BME280;71432;56.558;9.036;2023-08-08T04:57:54;99536.59;;;23.20;47.74
81937;BME280;71432;56.558;9.036;2023-08-08T05:00:19;99541.06;;;23.20;47.76
81937;BME280;71432;56.558;9.036;2023-08-08T05:02:44;99536.59;;;23.20;47.69
81937;BME280;71432;56.558;9.036;2023-08-08T05:05:09;99525.22;;;23.20;47.81
81937;BME280;71432;56.558;9.036;2023-08-08T05:07:35;99525.63;;;23.23;47.93
81937;BME280;71432;56.558;9.036;2023-08-08T05:10:03;99538.03;;;23.23;47.89
81937;BME280;71432;56.558;9.036;2023-08-08T05:12:28;99527.47;;;23.23;48.05
81937;BME280;71432;56.558;9.036;2023-08-08T05:14:54;99528.91;;;23.25;47.93
81937;BME280;71432;56.558;9.036;2023-08-08T05:17:19;99529.75;;;23.26;47.97
81937;BME280;71432;56.558;9.036;2023-08-08T05:19:44;99518.16;;;23.27;47.95
81937;BME280;71432;56.558;9.036;2023-08-08T05:22:10;99523.06;;;23.30;48.39
81937;BME280;71432;56.558;9.036;2023-08-08T05:24:35;99520.44;;;23.30;48.20
81937;BME280;71432;56.558;9.036;2023-08-08T05:27:01;99524.06;;;23.29;48.40
81937;BME280;71432;56.558;9.036;2023-08-08T05:29:26;99510.47;;;23.32;48.38
81937;BME280;71432;56.558;9.036;2023-08-08T05:31:51;99521.66;;;23.34;48.59
81937;BME280;71432;56.558;9.036;2023-08-08T05:34:17;99515.75;;;23.32;48.73
81937;BME280;71432;56.558;9.036;2023-08-08T05:36:42;99531.19;;;23.35;48.80
81937;BME280;71432;56.558;9.036;2023-08-08T05:39:08;99516.19;;;23.35;49.16
81937;BME280;71432;56.558;9.036;2023-08-08T05:41:34;99518.00;;;23.35;49.00
81937;BME280;71432;56.558;9.036;2023-08-08T05:44:01;99529.84;;;23.39;49.05
81937;BME280;71432;56.558;9.036;2023-08-08T05:46:26;99524.34;;;23.40;49.25
81937;BME280;71432;56.558;9.036;2023-08-08T05:48:51;99510.78;;;23.43;49.32
81937;BME280;71432;56.558;9.036;2023-08-08T05:51:17;99532.97;;;23.49;49.29
81937;BME280;71432;56.558;9.036;2023-08-08T05:53:42;99535.44;;;23.51;49.57
81937;BME280;71432;56.558;9.036;2023-08-08T05:56:07;99522.84;;;23.53;49.01
81937;BME280;71432;56.558;9.036;2023-08-08T05:58:34;99519.41;;;23.52;49.02
81937;BME280;71432;56.558;9.036;2023-08-08T06:00:59;99505.38;;;23.52;48.86
81937;BME280;71432;56.558;9.036;2023-08-08T06:03:25;99513.06;;;23.53;48.68
81937;BME280;71432;56.558;9.036;2023-08-08T06:05:50;99526.28;;;23.53;48.83
81937;BME280;71432;56.558;9.036;2023-08-08T06:08:15;99511.47;;;23.52;48.73
81937;BME280;71432;56.558;9.036;2023-08-08T06:10:42;99524.44;;;23.47;47.62
81937;BME280;71432;56.558;9.036;2023-08-08T06:13:07;99534.53;;;23.43;47.40
81937;BME280;71432;56.558;9.036;2023-08-08T06:15:32;99504.94;;;23.48;48.34
81937;BME280;71432;56.558;9.036;2023-08-08T06:17:59;99521.97;;;23.45;48.36
81937;BME280;71432;56.558;9.036;2023-08-08T06:20:24;99501.78;;;23.38;48.75
81937;BME280;71432;56.558;9.036;2023-08-08T06:22:50;99515.25;;;23.43;48.61
81937;BME280;71432;56.558;9.036;2023-08-08T06:25:15;99524.63;;;23.45;48.51
81937;BME280;71432;56.558;9.036;2023-08-08T06:27:40;99528.50;;;23.49;48.65
81937;BME280;71432;56.558;9.036;2023-08-08T06:30:06;99515.50;;;23.48;48.68
81937;BME280;71432;56.558;9.036;2023-08-08T06:32:33;99533.84;;;23.56;48.86
81937;BME280;71432;56.558;9.036;2023-08-08T06:34:58;99531.63;;;23.60;48.53
81937;BME280;71432;56.558;9.036;2023-08-08T06:37:24;99520.06;;;23.61;48.54
81937;BME280;71432;56.558;9.036;2023-08-08T06:39:49;99529.41;;;23.63;48.76
81937;BME280;71432;56.558;9.036;2023-08-08T06:42:14;99488.13;;;23.62;48.41
81937;BME280;71432;56.558;9.036;2023-08-08T06:44:44;99530.81;;;23.59;48.62
81937;BME280;71432;56.558;9.036;2023-08-08T06:47:10;99513.56;;;23.63;48.92
81937;BME280;71432;56.558;9.036;2023-08-08T06:49:36;99524.56;;;23.67;48.94
81937;BME280;71432;56.558;9.036;2023-08-08T06:52:01;99512.56;;;23.64;48.87
81937;BME280;71432;56.558;9.036;2023-08-08T06:54:27;99520.13;;;23.74;48.86
81937;BME280;71432;56.558;9.036;2023-08-08T06:56:55;99503.88;;;23.77;49.09
81937;BME280;71432;56.558;9.036;2023-08-08T06:59:22;99504.34;;;23.87;48.75
81937;BME280;71432;56.558;9.036;2023-08-08T07:01:48;99506.75;;;23.82;49.05
81937;BME280;71432;56.558;9.036;2023-08-08T07:04:14;99519.22;;;23.88;48.83
81937;BME280;71432;56.558;9.036;2023-08-08T07:06:39;99531.19;;;23.84;48.77
81937;BME280;71432;56.558;9.036;2023-08-08T07:09:04;99513.28;;;23.86;49.06
81937;BME280;71432;56.558;9.036;2023-08-08T07:11:31;99511.22;;;23.81;49.00
81937;BME280;71432;56.558;9.036;2023-08-08T07:13:56;99495.41;;;23.88;48.85
81937;BME280;71432;56.558;9.036;2023-08-08T07:16:21;99486.91;;;23.99;48.83
81937;BME280;71432;56.558;9.036;2023-08-08T07:18:47;99500.00;;;24.07;48.85
81937;BME280;71432;56.558;9.036;2023-08-08T07:21:12;99502.72;;;24.27;48.93
81937;BME280;71432;56.558;9.036;2023-08-08T07:23:37;99509.50;;;24.43;48.24
81937;BME280;71432;56.558;9.036;2023-08-08T07:26:03;99496.09;;;24.51;48.61
81937;BME280;71432;56.558;9.036;2023-08-08T07:28:28;99500.78;;;24.55;48.49
81937;BME280;71432;56.558;9.036;2023-08-08T07:30:53;99498.16;;;24.62;47.62
81937;BME280;71432;56.558;9.036;2023-08-08T07:33:19;99506.28;;;24.67;48.05
81937;BME280;71432;56.558;9.036;2023-08-08T07:35:44;99487.75;;;24.67;47.27
81937;BME280;71432;56.558;9.036;2023-08-08T07:38:09;99506.31;;;24.73;47.25
81937;BME280;71432;56.558;9.036;2023-08-08T07:40:35;99497.56;;;24.79;47.44
81937;BME280;71432;56.558;9.036;2023-08-08T07:43:00;99487.00;;;24.79;47.52
81937;BME280;71432;56.558;9.036;2023-08-08T07:45:26;99491.44;;;24.86;47.42
81937;BME280;71432;56.558;9.036;2023-08-08T07:47:51;99490.88;;;24.84;47.03
81937;BME280;71432;56.558;9.036;2023-08-08T07:50:16;99501.06;;;24.87;47.01
81937;BME280;71432;56.558;9.036;2023-08-08T07:52:42;99484.56;;;24.91;46.72
81937;BME280;71432;56.558;9.036;2023-08-08T07:55:07;99495.78;;;25.06;46.39
81937;BME280;71432;56.558;9.036;2023-08-08T07:57:33;99484.56;;;25.17;46.06
81937;BME280;71432;56.558;9.036;2023-08-08T08:00:04;99496.22;;;25.16;46.35
81937;BME280;71432;56.558;9.036;2023-08-08T08:02:42;99501.28;;;25.11;46.23
81937;BME280;71432;56.558;9.036;2023-08-08T08:05:08;99490.06;;;25.09;46.26
81937;BME280;71432;56.558;9.036;2023-08-08T08:07:35;99483.78;;;25.10;46.26
81937;BME280;71432;56.558;9.036;2023-08-08T08:10:06;99492.94;;;25.21;46.23
81937;BME280;71432;56.558;9.036;2023-08-08T08:12:32;99479.88;;;25.26;45.60
81937;BME280;71432;56.558;9.036;2023-08-08T08:14:58;99477.84;;;25.28;45.93
81937;BME280;71432;56.558;9.036;2023-08-08T08:17:23;99486.00;;;25.33;45.47
81937;BME280;71432;56.558;9.036;2023-08-08T08:19:50;99484.56;;;25.44;45.70
81937;BME280;71432;56.558;9.036;2023-08-08T08:22:16;99470.28;;;25.51;45.20
81937;BME280;71432;56.558;9.036;2023-08-08T08:24:41;99479.88;;;25.52;45.61
81937;BME280;71432;56.558;9.036;2023-08-08T08:27:06;99488.81;;;25.45;45.47
81937;BME280;71432;56.558;9.036;2023-08-08T08:29:32;99473.34;;;25.42;46.18
81937;BME280;71432;56.558;9.036;2023-08-08T08:31:58;99469.47;;;25.38;45.85
81937;BME280;71432;56.558;9.036;2023-08-08T08:34:23;99470.91;;;25.47;45.97
81937;BME280;71432;56.558;9.036;2023-08-08T08:36:48;99479.03;;;25.65;45.57
81937;BME280;71432;56.558;9.036;2023-08-08T08:39:14;99490.03;;;25.68;45.87
81937;BME280;71432;56.558;9.036;2023-08-08T08:41:39;99481.50;;;25.60;45.59
81937;BME280;71432;56.558;9.036;2023-08-08T08:44:05;99492.09;;;25.60;45.92
81937;BME280;71432;56.558;9.036;2023-08-08T08:46:35;99475.78;;;25.63;45.84
81937;BME280;71432;56.558;9.036;2023-08-08T08:49:02;99487.00;;;25.65;46.06
81937;BME280;71432;56.558;9.036;2023-08-08T08:51:29;99480.22;;;25.82;45.76
81937;BME280;71432;56.558;9.036;2023-08-08T08:53:54;99466.75;;;25.84;45.01
81937;BME280;71432;56.558;9.036;2023-08-08T08:56:20;99475.09;;;25.81;45.95
81937;BME280;71432;56.558;9.036;2023-08-08T08:58:46;99459.00;;;25.89;45.46
81937;BME280;71432;56.558;9.036;2023-08-08T09:01:11;99483.00;;;25.94;45.38
81937;BME280;71432;56.558;9.036;2023-08-08T09:03:37;99495.88;;;25.90;45.15
81937;BME280;71432;56.558;9.036;2023-08-08T09:06:04;99477.94;;;25.92;44.98
81937;BME280;71432;56.558;9.036;2023-08-08T09:08:29;99456.34;;;25.82;45.61
81937;BME280;71432;56.558;9.036;2023-08-08T09:10:55;99460.00;;;25.88;45.52
81937;BME280;71432;56.558;9.036;2023-08-08T09:13:21;99467.75;;;25.89;45.71
81937;BME280;71432;56.558;9.036;2023-08-08T09:15:48;99475.28;;;25.92;45.47
81937;BME280;71432;56.558;9.036;2023-08-08T09:18:14;99466.50;;;25.92;45.19
81937;BME280;71432;56.558;9.036;2023-08-08T09:20:40;99474.28;;;25.93;45.59
81937;BME280;71432;56.558;9.036;2023-08-08T09:23:05;99475.47;;;25.97;45.52
81937;BME280;71432;56.558;9.036;2023-08-08T09:25:31;99484.44;;;25.96;45.05
81937;BME280;71432;56.558;9.036;2023-08-08T09:27:56;99456.94;;;25.91;45.12
81937;BME280;71432;56.558;9.036;2023-08-08T09:30:22;99458.16;;;25.88;45.68
81937;BME280;71432;56.558;9.036;2023-08-08T09:32:47;99468.56;;;25.90;45.16
81937;BME280;71432;56.558;9.036;2023-08-08T09:35:13;99463.88;;;25.85;45.29
81937;BME280;71432;56.558;9.036;2023-08-08T09:37:38;99470.41;;;25.89;45.45
81937;BME280;71432;56.558;9.036;2023-08-08T09:40:05;99480.34;;;25.94;45.06
81937;BME280;71432;56.558;9.036;2023-08-08T09:42:33;99477.91;;;25.99;45.09
81937;BME280;71432;56.558;9.036;2023-08-08T09:44:59;99477.06;;;26.11;45.20
81937;BME280;71432;56.558;9.036;2023-08-08T09:47:25;99468.88;;;26.13;45.23
81937;BME280;71432;56.558;9.036;2023-08-08T09:49:58;99452.19;;;26.06;45.08
81937;BME280;71432;56.558;9.036;2023-08-08T09:52:24;99467.22;;;26.12;44.69
81937;BME280;71432;56.558;9.036;2023-08-08T09:54:51;99456.63;;;26.12;43.84
81937;BME280;71432;56.558;9.036;2023-08-08T09:57:17;99450.34;;;26.00;42.91
81937;BME280;71432;56.558;9.036;2023-08-08T09:59:44;99462.41;;;26.02;41.43
81937;BME280;71432;56.558;9.036;2023-08-08T10:02:13;99442.03;;;25.96;40.96
81937;BME280;71432;56.558;9.036;2023-08-08T10:04:39;99448.88;;;25.59;40.68
81937;BME280;71432;56.558;9.036;2023-08-08T10:07:04;99462.31;;;25.51;40.87
81937;BME280;71432;56.558;9.036;2023-08-08T10:09:30;99466.22;;;25.42;40.85
81937;BME280;71432;56.558;9.036;2023-08-08T10:11:55;99452.56;;;25.32;40.73
81937;BME280;71432;56.558;9.036;2023-08-08T10:14:29;99466.63;;;25.26;40.59
81937;BME280;71432;56.558;9.036;2023-08-08T10:16:55;99460.75;;;25.11;40.77
81937;BME280;71432;56.558;9.036;2023-08-08T10:19:24;99477.25;;;25.13;40.53
81937;BME280;71432;56.558;9.036;2023-08-08T10:21:56;99417.16;;;25.07;40.69
81937;BME280;71432;56.558;9.036;2023-08-08T10:24:22;99459.72;;;25.05;40.44
81937;BME280;71432;56.558;9.036;2023-08-08T10:26:52;99462.38;;;24.99;40.06
81937;BME280;71432;56.558;9.036;2023-08-08T10:29:19;99469.94;;;25.02;40.49
81937;BME280;71432;56.558;9.036;2023-08-08T10:31:52;99461.38;;;24.93;40.42
81937;BME280;71432;56.558;9.036;2023-08-08T10:34:20;99453.81;;;24.90;41.11
81937;BME280;71432;56.558;9.036;2023-08-08T10:36:50;99460.75;;;25.04;41.64
81937;BME280;71432;56.558;9.036;2023-08-08T10:39:19;99480.50;;;24.95;41.84
81937;BME280;71432;56.558;9.036;2023-08-08T10:41:47;99486.16;;;24.86;42.54
81937;BME280;71432;56.558;9.036;2023-08-08T10:44:13;99481.13;;;24.97;42.51
81937;BME280;71432;56.558;9.036;2023-08-08T10:59:38;99476.63;;;25.37;42.59
81937;BME280;71432;56.558;9.036;2023-08-08T11:02:04;99487.38;;;25.49;42.76
81937;BME280;71432;56.558;9.036;2023-08-08T11:04:30;99476.63;;;25.44;42.86
81937;BME280;71432;56.558;9.036;2023-08-08T11:06:57;99458.69;;;25.26;43.46
81937;BME280;71432;56.558;9.036;2023-08-08T11:09:23;99503.91;;;25.31;43.34
81937;BME280;71432;56.558;9.036;2023-08-08T11:11:49;99494.34;;;25.17;43.41
81937;BME280;71432;56.558;9.036;2023-08-08T11:14:16;99504.16;;;25.16;44.07
81937;BME280;71432;56.558;9.036;2023-08-08T11:16:43;99496.00;;;25.11;44.22
81937;BME280;71432;56.558;9.036;2023-08-08T11:19:10;99504.16;;;25.16;44.30
81937;BME280;71432;56.558;9.036;2023-08-08T11:21:42;99504.31;;;25.21;43.96
81937;BME280;71432;56.558;9.036;2023-08-08T11:24:08;99498.44;;;25.19;43.80
81937;BME280;71432;56.558;9.036;2023-08-08T11:26:34;99487.63;;;25.14;44.12
81937;BME280;71432;56.558;9.036;2023-08-08T11:29:00;99514.94;;;25.08;44.58
81937;BME280;71432;56.558;9.036;2023-08-08T11:31:26;99486.03;;;25.07;44.64
81937;BME280;71432;56.558;9.036;2023-08-08T11:33:56;99477.25;;;25.06;44.61
81937;BME280;71432;56.558;9.036;2023-08-08T11:36:22;99510.88;;;25.06;44.54
81937;BME280;71432;56.558;9.036;2023-08-08T11:38:49;99505.53;;;24.99;44.65
81937;BME280;71432;56.558;9.036;2023-08-08T11:41:22;99506.38;;;25.00;44.57
81937;BME280;71432;56.558;9.036;2023-08-08T11:43:47;99508.81;;;25.08;44.60
81937;BME280;71432;56.558;9.036;2023-08-08T11:46:14;99502.28;;;25.04;44.69
81937;BME280;71432;56.558;9.036;2023-08-08T11:48:40;99495.38;;;24.96;44.70
81937;BME280;71432;56.558;9.036;2023-08-08T11:51:07;99519.59;;;25.00;45.13
81937;BME280;71432;56.558;9.036;2023-08-08T11:53:33;99521.44;;;25.06;44.53
81937;BME280;71432;56.558;9.036;2023-08-08T11:56:00;99519.63;;;25.06;44.72
81937;BME280;71432;56.558;9.036;2023-08-08T11:58:25;99512.88;;;25.04;44.82
81937;BME280;71432;56.558;9.036;2023-08-08T12:00:51;99497.41;;;25.01;44.86
81937;BME280;71432;56.558;9.036;2023-08-08T12:03:17;99516.34;;;25.04;44.92
81937;BME280;71432;56.558;9.036;2023-08-08T12:05:45;99521.22;;;24.94;45.23
81937;BME280;71432;56.558;9.036;2023-08-08T12:08:11;99512.06;;;24.97;45.25
81937;BME280;71432;56.558;9.036;2023-08-08T12:10:36;99499.84;;;24.96;45.25
81937;BME280;71432;56.558;9.036;2023-08-08T12:13:02;99514.94;;;25.02;45.20
81937;BME280;71432;56.558;9.036;2023-08-08T12:15:35;99497.81;;;24.91;45.03
81937;BME280;71432;56.558;9.036;2023-08-08T12:18:04;99537.75;;;25.03;45.01
81937;BME280;71432;56.558;9.036;2023-08-08T12:20:30;99514.94;;;25.02;45.07
81937;BME280;71432;56.558;9.036;2023-08-08T12:22:57;99550.38;;;25.01;45.38
81937;BME280;71432;56.558;9.036;2023-08-08T12:25:22;99541.00;;;24.98;45.54
81937;BME280;71432;56.558;9.036;2023-08-08T12:27:48;99542.63;;;24.93;45.49
81937;BME280;71432;56.558;9.036;2023-08-08T12:30:13;99556.47;;;24.95;45.55
81937;BME280;71432;56.558;9.036;2023-08-08T12:32:38;99549.13;;;24.90;45.59
81937;BME280;71432;56.558;9.036;2023-08-08T12:35:04;99550.56;;;24.93;45.70
81937;BME280;71432;56.558;9.036;2023-08-08T12:37:31;99552.22;;;24.94;45.43
81937;BME280;71432;56.558;9.036;2023-08-08T12:39:56;99527.56;;;24.93;45.46
81937;BME280;71432;56.558;9.036;2023-08-08T12:42:22;99556.69;;;24.93;45.59
81937;BME280;71432;56.558;9.036;2023-08-08T12:44:47;99521.63;;;24.91;45.34
81937;BME280;71432;56.558;9.036;2023-08-08T12:47:16;99541.63;;;24.94;45.50
81937;BME280;71432;56.558;9.036;2023-08-08T12:49:41;99520.81;;;24.91;45.26
81937;BME280;71432;56.558;9.036;2023-08-08T12:52:06;99546.69;;;24.95;45.21
81937;BME280;71432;56.558;9.036;2023-08-08T12:54:32;99556.28;;;24.96;45.51
81937;BME280;71432;56.558;9.036;2023-08-08T12:56:57;99543.84;;;24.97;45.28
81937;BME280;71432;56.558;9.036;2023-08-08T12:59:23;99546.91;;;24.94;45.60
81937;BME280;71432;56.558;9.036;2023-08-08T13:01:48;99526.53;;;24.94;45.74
81937;BME280;71432;56.558;9.036;2023-08-08T13:04:13;99537.75;;;24.96;45.34
81937;BME280;71432;56.558;9.036;2023-08-08T13:06:39;99544.84;;;24.96;45.63